KSLC Airport Information

Runway Information
Runway 14 Length 4892 ft width 150 ft
Elevation 4222 ft Threshold 0 ft Heading 153
Runway 32 Length 4892 ft Width 150 ft
Elevation 4224 ft Threshold 0 ft Heading 333
Runway 16L Length 12004 ft width 150 ft
Elevation 4226 ft Threshold 0 ft Heading 175
Runway 34R Length 12004 ft Width 150 ft
Elevation 4221 ft Threshold 0 ft Heading 355
Runway 16R Length 12000 ft width 150 ft
Elevation 4221 ft Threshold 0 ft Heading 175
Runway 34L Length 12000 ft Width 150 ft
Elevation 4226 ft Threshold 0 ft Heading 355
Runway 17 Length 9596 ft width 150 ft
Elevation 4219 ft Threshold 0 ft Heading 180
Runway 35 Length 9596 ft Width 150 ft
Elevation 4224 ft Threshold 324 ft Heading 360
Airport Frequencies
Type A/D Name APP/DEP Frequency 121.1 MHZ
Type ATIS Name ATIS Frequency 124.75 MHZ
Type CLD Name CLNC DEL Frequency 127.3 MHZ
Type GND Name GND Frequency 121.9 MHZ
Type OPS Name ANG OPS Frequency 30.3 MHZ
Type RDO Name CEDAR CITY Frequency 122.4 MHZ
Type TWR Name TWR Frequency 118.3 MHZ
Type UNIC Name UNICOM Frequency 122.95 MHZ
Airport Navaids
Type VORTAC Name Wasatch Frequency 116800 KHZ
Airport Weather Information & NOTAM
ADDS - METARS form results

(1450 UTC 20 April 2018)
Data provider http://aviationweather.gov/adds/metars/
 
METAR text: KSLC 201444Z 04012G20KT 10SM BKN060 12/02 A2986 RMK AO2 WSHFT 1424 T01220022
Conditions at: KSLC (SALT LAKE CITY , UT, US) observed 1444 UTC 20 April 2018
Temperature: 12.2°C (54°F)
Dewpoint: 2.2°C (36°F) [RH = 50%]
Pressure (altimeter): 29.86 inches Hg (1011.3 mb)
Winds: from the NE (40 degrees) at 14 MPH (12 knots; 6.2 m/s)
gusting to 23 MPH (20 knots; 10.4 m/s)
Visibility: 10 or more miles (16+ km)
Ceiling: 6000 feet AGL
Clouds: broken clouds at 6000 feet AGL
Weather: no significant weather observed at this time

METAR text: KSLC 201354Z VRB03G16KT 10SM SCT045 BKN065TCU BKN150 13/02 A2982 RMK AO2 PK WND 03026/1328 SLP066 VIRGA NW AND DSNT SW-W TCU SW-NE SH VC NE AND DSNT S T01330017
Conditions at: KSLC (SALT LAKE CITY , UT, US) observed 1354 UTC 20 April 2018
Temperature: 13.3°C (56°F)
Dewpoint: 1.7°C (35°F) [RH = 45%]
Pressure (altimeter): 29.82 inches Hg (1009.9 mb)
[Sea-level pressure: 1006.6 mb]
Winds: variable direction winds at 3 MPH (3 knots; 1.6 m/s)
gusting to 18 MPH (16 knots; 8.3 m/s)
Visibility: 10 or more miles (16+ km)
Ceiling: 6500 feet AGL
Clouds: scattered clouds at 4500 feet AGL
broken clouds at 6500 feet AGL
broken clouds at 15000 feet AGL
Weather: no significant weather observed at this time

Forecast for: KSLC (SALT LAKE CITY , UT, US)
Text: KSLC 201311Z 2013/2118 02015G25KT P6SM BKN080 BKN120
Forecast period: 1300 to 1600 UTC 20 April 2018
Forecast type: FROM: standard forecast or significant change
Winds: from the NNE (20 degrees) at 17 MPH (15 knots; 7.8 m/s)
gusting to 29 MPH (25 knots; 13.0 m/s)
Visibility: 6 or more miles (10+ km)
Ceiling: 8000 feet AGL
Clouds: broken clouds at 8000 feet AGL
broken clouds at 12000 feet AGL
Weather: no significant weather forecast for this period
Forecast for: KSLC (SALT LAKE CITY , UT, US)
Text: KSLC 201311Z 2013/2118 02015G25KT P6SM BKN080 BKN120
Forecast period: 1300 to 1600 UTC 20 April 2018
Forecast type: FROM: standard forecast or significant change
Winds: from the NNE (20 degrees) at 17 MPH (15 knots; 7.8 m/s)
gusting to 29 MPH (25 knots; 13.0 m/s)
Visibility: 6 or more miles (10+ km)
Ceiling: 8000 feet AGL
Clouds: broken clouds at 8000 feet AGL
broken clouds at 12000 feet AGL
Weather: no significant weather forecast for this period
Forecast for: KSLC (SALT LAKE CITY , UT, US)
Text: KSLC 201311Z 2013/2118 02015G25KT P6SM BKN080 BKN120
Forecast period: 1600 to 2100 UTC 20 April 2018
Forecast type: FROM: standard forecast or significant change
Winds: from the N (350 degrees) at 12 MPH (10 knots; 5.2 m/s)
Visibility: 6 or more miles (10+ km)
Ceiling: 6000 feet AGL
Clouds: scattered clouds at 3000 feet AGL
broken clouds at 6000 feet AGL
Weather: -SHRA  (light rain showers)
Forecast for: KSLC (SALT LAKE CITY , UT, US)
Text: KSLC 201311Z 2013/2118 02015G25KT P6SM BKN080 BKN120
Forecast period: 1600 to 2100 UTC 20 April 2018
Forecast type: FROM: standard forecast or significant change
Winds: from the N (350 degrees) at 12 MPH (10 knots; 5.2 m/s)
Visibility: 6 or more miles (10+ km)
Ceiling: 6000 feet AGL
Clouds: scattered clouds at 3000 feet AGL
broken clouds at 6000 feet AGL
Weather: -SHRA  (light rain showers)
Forecast for: KSLC (SALT LAKE CITY , UT, US)
Text: KSLC 201311Z 2013/2118 02015G25KT P6SM BKN080 BKN120
Forecast period: 2100 UTC 20 April 2018 to 0500 UTC 21 April 2018
Forecast type: FROM: standard forecast or significant change
Winds: from the NW (320 degrees) at 12 MPH (10 knots; 5.2 m/s)
Visibility: 6 or more miles (10+ km)
Ceiling: 8000 feet AGL
Clouds: scattered clouds at 6000 feet AGL
broken clouds at 8000 feet AGL
Weather: VCSH  (showers in vicinity)
Forecast for: KSLC (SALT LAKE CITY , UT, US)
Text: KSLC 201311Z 2013/2118 02015G25KT P6SM BKN080 BKN120
Forecast period: 2100 UTC 20 April 2018 to 0500 UTC 21 April 2018
Forecast type: FROM: standard forecast or significant change
Winds: from the NW (320 degrees) at 12 MPH (10 knots; 5.2 m/s)
Visibility: 6 or more miles (10+ km)
Ceiling: 8000 feet AGL
Clouds: scattered clouds at 6000 feet AGL
broken clouds at 8000 feet AGL
Weather: VCSH  (showers in vicinity)
Forecast for: KSLC (SALT LAKE CITY , UT, US)
Text: KSLC 201311Z 2013/2118 02015G25KT P6SM BKN080 BKN120
Forecast period: 0500 to 1800 UTC 21 April 2018
Forecast type: FROM: standard forecast or significant change
Winds: from the SSE (150 degrees) at 8 MPH (7 knots; 3.6 m/s)
Visibility: 6 or more miles (10+ km)
Clouds: scattered clouds at 6000 feet AGL
Weather: no significant weather forecast for this period
Forecast for: KSLC (SALT LAKE CITY , UT, US)
Text: KSLC 201311Z 2013/2118 02015G25KT P6SM BKN080 BKN120
Forecast period: 0500 to 1800 UTC 21 April 2018
Forecast type: FROM: standard forecast or significant change
Winds: from the SSE (150 degrees) at 8 MPH (7 knots; 3.6 m/s)
Visibility: 6 or more miles (10+ km)
Clouds: scattered clouds at 6000 feet AGL
Weather: no significant weather forecast for this period